MGL137 ZMCK-EDDF
Flight info
| Callsign | MGL137 |
|---|---|
| Flight time | N/A |
| Altitude | 36100 |
| Route | LUBSO2C LUBSO A575 DARNO/K0898F360 P982 TR A308 KARSI/K0909F380 A308 ABK R104 BA R229 XV B228 LITUN N869 UNISO L870 ROMUM/K0904F400 L870 RANVA/N0490F400 L870 RESMO DCT SOKVA DCT GARSO DCT RONUN/K0885F400 DCT KUNER/N0476F400 P31 BEZMI DCT ALUKA DCT POVEL DCT RIMET/N0441F310 T157 KOKEB/N0386F230 T157 KERAX KERAX5A |
| Aircraft | B789/H-SDE1E2E3FGHIJ2J3J4J5M1RWXY/LB1D1 |
Departure
| Time | 2026-04-13 21:02 |
|---|---|
| Airport | Ulaanbaatar Chinggis Khaan International Airport (ZMCK) |
Arrival
| Time | N/A |
|---|---|
| Airport | Frankfurt Main Airport (EDDF) |
| Time | Latitude | Longitude | Altitude | Speed | Heading |
|---|---|---|---|---|---|
| 2026-04-13 20:37 | 47.65041 | 106.82218 | 4511 ft | 0 kts | 1° |
| 2026-04-13 20:50 | 47.65026 | 106.82218 | 4509 ft | 4 kts | 355° |
| 2026-04-13 20:50 | 47.65000 | 106.82224 | 4508 ft | 4 kts | 348° |
| 2026-04-13 20:51 | 47.64973 | 106.82230 | 4508 ft | 4 kts | 355° |
| 2026-04-13 20:51 | 47.64946 | 106.82233 | 4508 ft | 4 kts | 355° |
| 2026-04-13 20:51 | 47.64938 | 106.82234 | 4508 ft | 8 kts | 355° |
| 2026-04-13 20:54 | 47.64939 | 106.82234 | 4508 ft | 0 kts | 1° |
| 2026-04-13 20:55 | 47.64942 | 106.82236 | 4511 ft | 0 kts | 16° |
| 2026-04-13 20:55 | 47.64945 | 106.82242 | 4512 ft | 1 kts | 44° |
| 2026-04-13 20:55 | 47.64947 | 106.82250 | 4511 ft | 1 kts | 75° |
| 2026-04-13 20:55 | 47.64945 | 106.82258 | 4510 ft | 1 kts | 107° |
| 2026-04-13 20:56 | 47.64932 | 106.82288 | 4509 ft | 7 kts | 122° |
| 2026-04-13 20:56 | 47.64897 | 106.82378 | 4512 ft | 11 kts | 115° |
| 2026-04-13 20:56 | 47.64875 | 106.82480 | 4508 ft | 10 kts | 104° |
| 2026-04-13 20:56 | 47.64840 | 106.82559 | 4508 ft | 9 kts | 142° |
| 2026-04-13 20:57 | 47.64791 | 106.82608 | 4510 ft | 9 kts | 141° |
| 2026-04-13 20:57 | 47.64747 | 106.82695 | 4510 ft | 12 kts | 114° |
| 2026-04-13 20:57 | 47.64722 | 106.82834 | 4510 ft | 16 kts | 104° |
| 2026-04-13 20:57 | 47.64693 | 106.83009 | 4510 ft | 19 kts | 104° |
| 2026-04-13 20:58 | 47.64656 | 106.83211 | 4508 ft | 22 kts | 105° |
| 2026-04-13 20:58 | 47.64614 | 106.83446 | 4508 ft | 25 kts | 105° |
| 2026-04-13 20:58 | 47.64568 | 106.83708 | 4509 ft | 28 kts | 104° |
| 2026-04-13 20:58 | 47.64518 | 106.83995 | 4507 ft | 30 kts | 104° |
| 2026-04-13 20:59 | 47.64468 | 106.84266 | 4508 ft | 10 kts | 115° |
| 2026-04-13 20:59 | 47.64407 | 106.84334 | 4508 ft | 11 kts | 170° |
| 2026-04-13 20:59 | 47.64336 | 106.84312 | 4508 ft | 10 kts | 198° |
| 2026-04-13 20:59 | 47.64297 | 106.84257 | 4508 ft | 6 kts | 259° |
| 2026-04-13 21:00 | 47.64300 | 106.84229 | 4506 ft | 0 kts | 285° |
| 2026-04-13 21:00 | 47.64308 | 106.84185 | 4508 ft | 18 kts | 285° |
| 2026-04-13 21:01 | 47.64385 | 106.83757 | 4510 ft | 68 kts | 284° |
| 2026-04-13 21:01 | 47.64545 | 106.82834 | 4507 ft | 115 kts | 285° |
| 2026-04-13 21:01 | 47.64780 | 106.81484 | 4509 ft | 154 kts | 284° |
| 2026-04-13 21:01 | 47.65078 | 106.79783 | 4551 ft | 184 kts | 282° |
| 2026-04-13 21:02 | 47.65397 | 106.77965 | 5014 ft | 181 kts | 284° |
| 2026-04-13 21:02 | 47.65753 | 106.76240 | 5660 ft | 172 kts | 285° |
| 2026-04-13 21:02 | 47.66037 | 106.74452 | 5945 ft | 183 kts | 283° |
| 2026-04-13 21:02 | 47.66347 | 106.72600 | 6261 ft | 189 kts | 285° |
| 2026-04-13 21:03 | 47.66950 | 106.70810 | 6193 ft | 207 kts | 312° |
| 2026-04-13 21:03 | 47.68072 | 106.69352 | 6316 ft | 220 kts | 314° |
| 2026-04-13 21:03 | 47.69126 | 106.67635 | 6480 ft | 231 kts | 310° |
| 2026-04-13 21:03 | 47.70238 | 106.65835 | 6668 ft | 242 kts | 312° |
| 2026-04-13 21:04 | 47.71438 | 106.64000 | 6850 ft | 253 kts | 313° |
| 2026-04-13 21:04 | 47.72695 | 106.62096 | 7211 ft | 260 kts | 313° |
| 2026-04-13 21:04 | 47.73951 | 106.60172 | 7835 ft | 259 kts | 313° |
| 2026-04-13 21:04 | 47.75201 | 106.58245 | 8396 ft | 259 kts | 312° |
| 2026-04-13 21:05 | 47.76454 | 106.56314 | 8957 ft | 260 kts | 312° |
| 2026-04-13 21:05 | 47.77711 | 106.54379 | 9503 ft | 261 kts | 312° |
| 2026-04-13 21:05 | 47.78972 | 106.52439 | 10024 ft | 261 kts | 312° |
| 2026-04-13 21:05 | 47.80253 | 106.50462 | 10285 ft | 272 kts | 312° |
| 2026-04-13 21:06 | 47.81603 | 106.48375 | 10390 ft | 288 kts | 312° |
| 2026-04-13 21:06 | 47.83029 | 106.46174 | 10543 ft | 303 kts | 312° |
| 2026-04-13 21:06 | 47.84521 | 106.43870 | 10772 ft | 313 kts | 312° |
| 2026-04-13 21:06 | 47.85933 | 106.41387 | 11190 ft | 315 kts | 305° |
| 2026-04-13 21:07 | 47.87260 | 106.38814 | 11682 ft | 319 kts | 306° |
| 2026-04-13 21:07 | 47.88658 | 106.36177 | 12174 ft | 322 kts | 306° |
| 2026-04-13 21:07 | 47.90048 | 106.33545 | 12658 ft | 325 kts | 306° |
| 2026-04-13 21:07 | 47.91426 | 106.30905 | 13134 ft | 328 kts | 306° |
| 2026-04-13 21:08 | 47.92831 | 106.28210 | 13643 ft | 330 kts | 306° |
| 2026-04-13 21:08 | 47.94251 | 106.25496 | 14113 ft | 332 kts | 306° |
| 2026-04-13 21:08 | 47.95678 | 106.22768 | 14582 ft | 334 kts | 306° |
| 2026-04-13 21:08 | 47.97104 | 106.20035 | 15060 ft | 335 kts | 306° |
| 2026-04-13 21:09 | 47.98546 | 106.17265 | 15530 ft | 337 kts | 306° |
| 2026-04-13 21:09 | 47.99989 | 106.14494 | 16000 ft | 339 kts | 306° |
| 2026-04-13 21:09 | 48.01439 | 106.11706 | 16465 ft | 340 kts | 306° |
| 2026-04-13 21:09 | 48.02896 | 106.08903 | 16911 ft | 342 kts | 306° |
| 2026-04-13 21:10 | 48.04356 | 106.06089 | 17360 ft | 343 kts | 306° |
| 2026-04-13 21:10 | 48.05821 | 106.03263 | 17812 ft | 345 kts | 306° |
| 2026-04-13 21:10 | 48.06816 | 106.01341 | 18129 ft | 346 kts | 306° |
| 2026-04-13 21:10 | 48.08293 | 105.98489 | 18504 ft | 348 kts | 306° |
| 2026-04-13 21:11 | 48.09776 | 105.95619 | 18865 ft | 349 kts | 306° |
| 2026-04-13 21:11 | 48.11261 | 105.92744 | 19272 ft | 349 kts | 306° |
| 2026-04-13 21:11 | 48.12748 | 105.89864 | 19657 ft | 350 kts | 306° |
| 2026-04-13 21:11 | 48.14195 | 105.86929 | 19974 ft | 351 kts | 301° |
| 2026-04-13 21:12 | 48.15272 | 105.83643 | 20296 ft | 352 kts | 294° |
| 2026-04-13 21:12 | 48.16306 | 105.80312 | 20641 ft | 353 kts | 295° |
| 2026-04-13 21:12 | 48.17339 | 105.77018 | 20964 ft | 355 kts | 295° |
| 2026-04-13 21:12 | 48.18386 | 105.73654 | 21313 ft | 356 kts | 294° |
| 2026-04-13 21:13 | 48.19427 | 105.70280 | 21650 ft | 358 kts | 294° |
| 2026-04-13 21:13 | 48.20476 | 105.66883 | 21972 ft | 359 kts | 294° |
| 2026-04-13 21:13 | 48.21530 | 105.63476 | 22294 ft | 361 kts | 295° |
| 2026-04-13 21:13 | 48.22586 | 105.60056 | 22605 ft | 363 kts | 295° |
| 2026-04-13 21:14 | 48.23646 | 105.56612 | 22959 ft | 363 kts | 295° |
| 2026-04-13 21:14 | 48.24705 | 105.53168 | 23319 ft | 364 kts | 295° |
| 2026-04-13 21:14 | 48.25765 | 105.49717 | 23602 ft | 365 kts | 295° |
| 2026-04-13 21:14 | 48.26827 | 105.46258 | 23866 ft | 366 kts | 295° |
| 2026-04-13 21:15 | 48.27892 | 105.42780 | 24118 ft | 367 kts | 295° |
| 2026-04-13 21:15 | 48.28958 | 105.39297 | 24368 ft | 368 kts | 295° |
| 2026-04-13 21:15 | 48.30033 | 105.35777 | 24619 ft | 370 kts | 295° |
| 2026-04-13 21:15 | 48.31106 | 105.32261 | 24863 ft | 371 kts | 295° |
| 2026-04-13 21:16 | 48.32180 | 105.28734 | 25087 ft | 372 kts | 295° |
| 2026-04-13 21:16 | 48.33257 | 105.25193 | 25329 ft | 373 kts | 294° |
| 2026-04-13 21:16 | 48.34336 | 105.21641 | 25575 ft | 374 kts | 294° |
| 2026-04-13 21:16 | 48.35418 | 105.18072 | 25854 ft | 374 kts | 295° |
| 2026-04-13 21:17 | 48.36497 | 105.14511 | 26140 ft | 374 kts | 295° |
| 2026-04-13 21:17 | 48.37574 | 105.10951 | 26394 ft | 375 kts | 295° |
| 2026-04-13 21:17 | 48.38650 | 105.07387 | 26608 ft | 376 kts | 295° |
| 2026-04-13 21:17 | 48.39734 | 105.03792 | 26849 ft | 377 kts | 295° |
| 2026-04-13 21:18 | 48.40817 | 105.00196 | 27077 ft | 378 kts | 295° |
| 2026-04-13 21:18 | 48.41901 | 104.96592 | 27287 ft | 379 kts | 295° |